Time;durP1;ratioP1;P1;durP2;ratioP2;P2;SDS_P1;SDS_P2;PMS_P1;PMS_P2;Temp;Humidity;BMP_temperature;BMP_pressure;BME280_temperature;BME280_humidity;BME280_pressure;Samples;Min_cycle;Max_cycle;Signal;HPM_P1;HPM_P2
2023/10/01 00:00:12;;;;;;;18.33;6.70;;;;;;;10.70;100.00;101282.84;5059820;28;20036;-78
2023/10/01 00:02:40;;;;;;;13.45;5.93;;;;;;;10.69;100.00;101286.94;5043707;28;20024;-78
2023/10/01 00:05:25;;;;;;;15.55;5.90;;;;;;;10.67;100.00;101293.16;5077130;28;20134;-79
2023/10/01 00:07:54;;;;;;;11.25;6.47;;;;;;;10.65;100.00;101278.53;5094559;28;20020;-78
2023/10/01 00:10:22;;;;;;;15.63;5.75;;;;;;;10.62;100.00;101284.41;5060875;28;20031;-80
2023/10/01 00:12:50;;;;;;;13.38;6.20;;;;;;;10.62;100.00;101288.06;5076280;28;20440;-77
2023/10/01 00:15:20;;;;;;;16.40;6.00;;;;;;;10.60;100.00;101284.06;5076160;28;20094;-79
2023/10/01 00:17:48;;;;;;;18.23;5.70;;;;;;;10.57;100.00;101282.16;5076490;28;20120;-81
2023/10/01 00:23:02;;;;;;;9.52;5.60;;;;;;;10.59;100.00;101273.88;5081328;28;20028;-80
2023/10/01 00:25:38;;;;;;;13.77;5.32;;;;;;;10.55;100.00;101277.69;5077699;28;20027;-78
2023/10/01 00:28:04;;;;;;;14.75;5.85;;;;;;;10.55;100.00;101279.75;5075492;28;20028;-78
2023/10/01 00:30:31;;;;;;;14.30;5.30;;;;;;;10.54;100.00;101281.81;5093837;28;20016;-78
2023/10/01 00:33:11;;;;;;;16.65;4.95;;;;;;;10.55;100.00;101286.25;5059181;28;20484;-78
2023/10/01 00:35:40;;;;;;;11.02;4.53;;;;;;;10.51;100.00;101279.91;5093695;28;20031;-79
2023/10/01 00:38:07;;;;;;;15.85;5.93;;;;;;;10.50;100.00;101277.50;5093901;28;20024;-79
2023/10/01 00:40:33;;;;;;;11.40;5.32;;;;;;;10.56;100.00;101284.22;5059021;28;20392;-77
2023/10/01 00:42:58;;;;;;;17.50;5.45;;;;;;;10.59;100.00;101280.41;5093838;28;20533;-78
2023/10/01 00:45:24;;;;;;;11.50;4.82;;;;;;;10.63;100.00;101278.19;5093637;28;20402;-79
2023/10/01 00:47:51;;;;;;;24.10;7.82;;;;;;;10.66;100.00;101287.91;5093826;28;20028;-79
2023/10/01 00:50:22;;;;;;;14.82;4.97;;;;;;;10.69;100.00;101281.22;5059154;28;20028;-78
2023/10/01 00:52:49;;;;;;;10.43;4.63;;;;;;;10.70;100.00;101272.19;5059433;28;20031;-78
2023/10/01 00:55:23;;;;;;;13.90;6.07;;;;;;;10.70;100.00;101265.69;5071540;28;20044;-79
2023/10/01 00:57:49;;;;;;;10.77;5.40;;;;;;;10.70;100.00;101274.25;5072015;28;20481;-79
2023/10/01 01:00:16;;;;;;;9.93;5.40;;;;;;;10.72;100.00;101266.81;5038720;28;20493;-79
2023/10/01 01:02:56;;;;;;;10.55;5.20;;;;;;;10.76;100.00;101264.59;5055152;28;20093;-80
2023/10/01 01:05:24;;;;;;;14.10;5.00;;;;;;;10.80;100.00;101261.59;5073193;28;20021;-79
2023/10/01 01:07:51;;;;;;;14.48;5.15;;;;;;;10.66;100.00;101234.38;5054999;28;20044;-78
2023/10/01 01:10:39;;;;;;;11.60;4.35;;;;;;;10.83;100.00;101258.56;5072845;28;20041;-77
2023/10/01 01:13:06;;;;;;;11.30;4.70;;;;;;;10.86;100.00;101262.56;5071779;28;20036;-77
2023/10/01 01:15:34;;;;;;;8.77;4.72;;;;;;;10.79;100.00;101263.66;5072912;28;20035;-78
2023/10/01 01:18:01;;;;;;;15.50;4.75;;;;;;;10.78;100.00;101282.06;5055341;28;20040;-78
2023/10/01 01:20:36;;;;;;;16.30;5.10;;;;;;;10.83;100.00;101284.31;5072451;28;20032;-79
2023/10/01 01:23:06;;;;;;;9.57;3.75;;;;;;;10.80;100.00;101273.03;5072873;28;20048;-78
2023/10/01 01:25:32;;;;;;;8.75;4.82;;;;;;;10.71;100.00;101262.34;5073029;28;20028;-80
2023/10/01 01:27:58;;;;;;;12.98;4.95;;;;;;;10.77;100.00;101269.06;5071624;28;20036;-77
2023/10/01 01:30:43;;;;;;;11.75;5.38;;;;;;;10.75;100.00;101267.94;5071627;28;20039;-79
2023/10/01 01:33:13;;;;;;;15.77;4.60;;;;;;;10.71;100.00;101265.22;5072648;28;20526;-78
2023/10/01 01:35:42;;;;;;;11.77;5.57;;;;;;;10.74;100.00;101258.53;5071625;28;20036;-78
2023/10/01 01:38:10;;;;;;;10.75;4.80;;;;;;;10.75;100.00;101259.34;5071720;28;20028;-79
2023/10/01 01:40:40;;;;;;;10.90;4.22;;;;;;;10.69;100.00;101255.50;5075066;28;20025;-79
2023/10/01 01:43:15;;;;;;;11.77;4.00;;;;;;;10.68;100.00;101253.94;5076809;28;20104;-78
2023/10/01 01:46:00;;;;;;;10.70;4.90;;;;;;;10.67;100.00;101252.34;5076788;28;20024;-79
2023/10/01 01:48:33;;;;;;;16.45;5.25;;;;;;;10.63;100.00;101246.75;5076890;28;20039;-78
2023/10/01 01:51:00;;;;;;;9.63;4.82;;;;;;;10.59;100.00;101248.97;5075334;28;20032;-77
2023/10/01 01:53:35;;;;;;;13.13;5.05;;;;;;;10.57;100.00;101251.50;5076714;28;20025;-78
2023/10/01 01:56:04;;;;;;;12.35;5.18;;;;;;;10.52;100.00;101252.91;5093298;28;20409;-78
2023/10/01 01:58:51;;;;;;;9.77;4.75;;;;;;;10.46;100.00;101249.06;5067357;28;20043;-79
2023/10/01 02:03:46;;;;;;;13.93;5.13;;;;;;;10.50;100.00;101254.63;5096528;28;20036;-78
2023/10/01 02:06:13;;;;;;;14.88;5.28;;;;;;;10.50;100.00;101251.78;5078492;28;20138;-78
2023/10/01 02:08:57;;;;;;;10.57;4.88;;;;;;;10.45;100.00;101250.34;5096315;28;20028;-79
2023/10/01 02:11:23;;;;;;;10.02;4.68;;;;;;;10.47;100.00;101255.59;5078182;28;20020;-80
2023/10/01 02:13:52;;;;;;;14.38;5.28;;;;;;;10.47;100.00;101247.81;5096675;28;20036;-80
2023/10/01 02:16:18;;;;;;;10.65;4.28;;;;;;;10.48;100.00;101234.31;5061406;28;20043;-80
2023/10/01 02:18:56;;;;;;;8.00;3.83;;;;;;;10.51;100.00;101247.66;5078666;28;20036;-80
2023/10/01 02:21:42;;;;;;;10.15;3.90;;;;;;;10.55;100.00;101251.97;5080032;28;20036;-79
2023/10/01 02:24:13;;;;;;;18.13;4.95;;;;;;;10.59;100.00;101251.81;5063917;28;20036;-77
2023/10/01 02:26:46;;;;;;;12.70;4.17;;;;;;;10.55;100.00;101234.81;5096715;28;20028;-80
2023/10/01 02:29:31;;;;;;;8.82;3.95;;;;;;;10.61;100.00;101237.06;5095250;28;20284;-80
2023/10/01 02:32:04;;;;;;;11.65;4.15;;;;;;;10.66;100.00;101237.25;5062270;28;20077;-79
2023/10/01 02:34:32;;;;;;;10.82;5.43;;;;;;;10.74;100.00;101252.03;5062166;28;20160;-78
2023/10/01 02:36:58;;;;;;;13.82;3.90;;;;;;;10.75;100.00;101243.00;5077966;28;20483;-80
2023/10/01 02:39:27;;;;;;;7.85;3.70;;;;;;;10.81;100.00;101257.47;5060422;28;20187;-80
2023/10/01 02:42:09;;;;;;;13.05;4.28;;;;;;;10.78;100.00;101246.97;5062234;28;20058;-79
2023/10/01 02:44:38;;;;;;;;;;;;;;;10.80;100.00;101244.44;5096484;28;20024;-81
2023/10/01 02:47:16;;;;;;;12.65;4.45;;;;;;;10.68;100.00;101233.94;5095575;28;19908;-78
2023/10/01 02:49:49;;;;;;;8.10;3.53;;;;;;;10.79;100.00;101246.50;5095570;28;20047;-79
2023/10/01 02:52:18;;;;;;;11.63;4.22;;;;;;;10.80;100.00;101250.16;5092202;28;20173;-78
2023/10/01 02:54:47;;;;;;;9.95;4.00;;;;;;;10.58;100.00;101210.22;5095337;28;20055;-78
2023/10/01 02:57:23;;;;;;;12.30;4.03;;;;;;;10.78;100.00;101244.91;5095447;28;20032;-80
2023/10/01 03:02:39;;;;;;;11.18;3.60;;;;;;;10.71;100.00;101232.97;5080974;28;20121;-79
2023/10/01 03:05:08;;;;;;;12.80;3.75;;;;;;;10.77;100.00;101239.66;5082382;28;20039;-79
2023/10/01 03:07:45;;;;;;;11.93;3.95;;;;;;;10.80;100.00;101248.09;5119902;28;20053;-77
2023/10/01 03:10:29;;;;;;;8.98;3.58;;;;;;;10.82;100.00;101250.50;5119872;28;20016;-77
2023/10/01 03:13:14;;;;;;;11.18;3.58;;;;;;;10.77;100.00;101231.09;5116416;28;20058;-79
2023/10/01 03:16:33;;;;;;;9.05;3.92;;;;;;;10.91;100.00;101239.88;5101215;28;20020;-78
2023/10/01 03:28:34;;;;;;;11.10;3.10;;;;;;;11.20;100.00;101230.09;5064758;28;20456;-78
2023/10/01 03:31:06;;;;;;;;;;;;;;;11.28;100.00;101235.03;5078247;28;20040;-80
2023/10/01 03:33:40;;;;;;;9.40;4.00;;;;;;;11.35;100.00;101245.38;5074472;28;19998;-79
2023/10/01 03:36:11;;;;;;;12.43;2.80;;;;;;;11.43;100.00;101240.13;5076925;28;20024;-79
2023/10/01 03:38:38;;;;;;;9.65;2.78;;;;;;;11.45;100.00;101237.59;5077101;28;20040;-78
2023/10/01 03:41:08;;;;;;;8.68;2.88;;;;;;;11.46;100.00;101231.41;5077085;28;20027;-78
2023/10/01 03:43:35;;;;;;;17.17;3.70;;;;;;;11.49;100.00;101233.31;5095090;28;20032;-80
2023/10/01 03:46:50;;;;;;;9.93;2.58;;;;;;;11.51;100.00;101236.50;5094999;28;20028;-78
2023/10/01 03:48:58;;;;;;;7.75;3.22;;;;;;;11.54;100.00;101246.97;5086204;28;20148;-77
2023/10/01 03:51:53;;;;;;;6.88;2.90;;;;;;;11.40;100.00;101213.28;5094488;28;20085;-78
2023/10/01 03:57:20;;;;;;;5.43;2.60;;;;;;;11.57;100.00;101234.56;5058910;28;20032;-79
2023/10/01 03:59:53;;;;;;;5.43;2.67;;;;;;;11.66;100.00;101236.66;5094551;28;20050;-77
2023/10/01 04:08:12;;;;;;;10.02;3.25;;;;;;;11.82;100.00;101242.03;5035146;28;20033;-79
2023/10/01 04:10:58;;;;;;;11.65;3.15;;;;;;;11.81;100.00;101229.78;5032453;28;20040;-78
2023/10/01 04:13:24;;;;;;;8.90;2.55;;;;;;;11.94;100.00;101243.13;5032060;28;20486;-78
2023/10/01 04:15:56;;;;;;;9.63;2.22;;;;;;;11.93;100.00;101235.81;5031059;28;20046;-79
2023/10/01 04:18:24;;;;;;;9.05;2.75;;;;;;;11.96;100.00;101240.59;5095128;28;20185;-77
2023/10/01 04:23:36;;;;;;;10.85;2.88;;;;;;;12.04;100.00;101247.59;5060623;28;20035;-78
2023/10/01 04:26:07;;;;;;;11.20;2.67;;;;;;;12.07;100.00;101241.69;5076101;28;20020;-77
2023/10/01 04:28:37;;;;;;;6.80;2.70;;;;;;;12.10;100.00;101243.59;5059377;28;20329;-78
2023/10/01 04:31:10;;;;;;;9.95;2.72;;;;;;;12.14;100.00;101240.56;5059251;28;20028;-78
2023/10/01 04:33:42;;;;;;;9.57;3.50;;;;;;;12.12;100.00;101243.09;5043749;28;20111;-78
2023/10/01 04:36:16;;;;;;;8.40;3.70;;;;;;;12.20;100.00;101235.78;5042864;28;20035;-77
2023/10/01 04:38:43;;;;;;;8.18;3.08;;;;;;;12.22;100.00;101225.41;5077654;28;20032;-78
2023/10/01 04:41:16;;;;;;;6.32;3.40;;;;;;;12.22;100.00;101234.00;5076276;28;20032;-78
2023/10/01 04:46:36;;;;;;;12.65;3.42;;;;;;;12.20;100.00;101225.09;5093968;28;20515;-78
2023/10/01 04:49:47;;;;;;;13.40;3.80;;;;;;;12.21;100.00;101225.88;5094353;28;20410;-79
2023/10/01 04:51:59;;;;;;;11.80;3.40;;;;;;;12.23;100.00;101235.59;5066228;28;20413;-78
2023/10/01 04:54:26;;;;;;;9.27;3.50;;;;;;;12.19;100.00;101223.50;5093493;28;20117;-78
2023/10/01 04:56:57;;;;;;;11.00;3.60;;;;;;;12.27;100.00;101235.41;5076457;28;20024;-79
2023/10/01 04:59:27;;;;;;;7.78;3.05;;;;;;;12.27;100.00;101236.22;5076993;28;20020;-77
2023/10/01 05:01:56;;;;;;;9.38;3.08;;;;;;;12.27;100.00;101241.16;5059734;28;20032;-78
2023/10/01 05:04:26;;;;;;;8.77;3.05;;;;;;;12.22;100.00;101247.53;5094101;28;20039;-79
2023/10/01 05:07:10;;;;;;;8.77;3.63;;;;;;;12.28;100.00;101257.06;5093823;28;20020;-79
2023/10/01 05:09:36;;;;;;;6.13;3.03;;;;;;;12.31;100.00;101249.59;5093626;28;20449;-79
2023/10/01 05:12:03;;;;;;;7.15;3.78;;;;;;;12.28;100.00;101246.41;5092850;28;20043;-76
2023/10/01 05:14:29;;;;;;;4.97;2.42;;;;;;;12.29;100.00;101235.75;5093591;28;20104;-79
2023/10/01 05:17:07;;;;;;;11.55;3.22;;;;;;;12.43;100.00;101249.41;5096684;28;20043;-77
2023/10/01 05:19:38;;;;;;;8.77;2.65;;;;;;;12.41;100.00;101234.75;5097804;28;20031;-78
2023/10/01 05:22:03;;;;;;;9.00;2.70;;;;;;;12.49;100.00;101244.63;5097635;28;20464;-78
2023/10/01 05:24:34;;;;;;;8.23;2.40;;;;;;;12.54;100.00;101223.91;5097459;28;20020;-80
2023/10/01 05:27:22;;;;;;;12.25;2.92;;;;;;;12.70;100.00;101234.19;5080032;28;20012;-81
2023/10/01 05:29:49;;;;;;;11.15;3.42;;;;;;;12.75;100.00;101229.88;5097532;28;20039;-79
2023/10/01 05:32:18;;;;;;;11.60;2.70;;;;;;;12.83;100.00;101226.16;5097430;28;20476;-78
2023/10/01 05:35:14;;;;;;;10.63;3.67;;;;;;;12.90;100.00;101236.47;5097173;28;20024;-77
2023/10/01 05:37:42;;;;;;;8.07;3.15;;;;;;;12.86;100.00;101230.09;5097064;28;20032;-79
2023/10/01 05:40:08;;;;;;;11.38;3.28;;;;;;;12.95;100.00;101244.41;5097369;28;20024;-80
2023/10/01 05:42:34;;;;;;;8.77;2.80;;;;;;;12.94;100.00;101239.97;5078985;28;20032;-80
2023/10/01 05:45:04;;;;;;;7.03;3.63;;;;;;;13.04;100.00;101259.50;5097475;28;20032;-78
2023/10/01 05:50:31;;;;;;;10.05;3.05;;;;;;;13.15;100.00;101247.47;5062400;28;20035;-76
2023/10/01 05:52:59;;;;;;;11.23;3.83;;;;;;;13.25;100.00;101254.72;5097048;28;20040;-80
2023/10/01 05:55:26;;;;;;;11.05;2.95;;;;;;;13.30;100.00;101248.31;5075092;28;20501;-79
2023/10/01 05:57:52;;;;;;;8.07;2.65;;;;;;;13.41;100.00;101244.91;5076575;28;20029;-80
2023/10/01 06:00:26;;;;;;;10.07;2.85;;;;;;;13.49;100.00;101249.78;5076238;28;20039;-75
2023/10/01 06:03:01;;;;;;;6.95;3.05;;;;;;;13.58;100.00;101245.28;5076546;28;20024;-78
2023/10/01 06:05:43;;;;;;;6.18;3.20;;;;;;;13.72;100.00;101251.06;5076599;28;20047;-78
2023/10/01 06:08:17;;;;;;;6.47;2.88;;;;;;;13.82;100.00;101261.19;5076310;28;20534;-77
2023/10/01 06:11:09;;;;;;;10.02;2.72;;;;;;;13.93;100.00;101261.41;5075125;28;20389;-79
2023/10/01 06:13:48;;;;;;;8.82;2.88;;;;;;;14.02;100.00;101245.38;5076625;28;20052;-79
2023/10/01 06:16:22;;;;;;;8.68;2.92;;;;;;;14.16;100.00;101250.31;5076098;28;20028;-79
2023/10/01 06:18:49;;;;;;;10.43;2.55;;;;;;;14.29;100.00;101248.72;5074923;28;20419;-79
2023/10/01 06:21:35;;;;;;;7.47;2.38;;;;;;;14.43;100.00;101258.63;5058488;28;20046;-79
2023/10/01 06:24:07;;;;;;;11.30;2.88;;;;;;;14.52;100.00;101249.13;5072658;28;20107;-78
2023/10/01 06:26:36;;;;;;;6.68;2.17;;;;;;;14.71;100.00;101251.31;5076365;28;20078;-78
2023/10/01 06:29:03;;;;;;;9.82;2.55;;;;;;;14.86;100.00;101248.41;5042246;28;20484;-78
2023/10/01 06:31:52;;;;;;;6.05;2.42;;;;;;;15.01;100.00;101236.84;5074725;28;20435;-78
2023/10/01 06:34:21;;;;;;;8.23;2.38;;;;;;;15.22;100.00;101227.72;5075990;28;20048;-78
2023/10/01 06:36:51;;;;;;;11.05;2.47;;;;;;;15.39;100.00;101227.16;5074569;28;20037;-77
2023/10/01 06:39:20;;;;;;;8.75;2.33;;;;;;;15.54;100.00;101222.91;5074861;28;20032;-77
2023/10/01 06:41:48;;;;;;;10.70;2.60;;;;;;;15.92;100.00;101230.44;5074503;28;20111;-78
2023/10/01 06:44:14;;;;;;;8.73;2.25;;;;;;;16.74;100.00;101225.16;5074473;28;20543;-78
2023/10/01 06:46:40;;;;;;;6.82;2.55;;;;;;;17.40;100.00;101221.88;5075512;28;20029;-79
2023/10/01 06:49:08;;;;;;;5.75;2.75;;;;;;;17.65;100.00;101232.50;5076074;28;20033;-79
2023/10/01 06:51:47;;;;;;;10.20;2.65;;;;;;;17.62;100.00;101235.66;5075546;28;20029;-79
2023/10/01 06:54:14;;;;;;;9.75;2.38;;;;;;;17.54;100.00;101228.78;5075451;28;20043;-79
2023/10/01 06:56:47;;;;;;;7.38;2.78;;;;;;;17.45;100.00;101226.13;5060679;28;20028;-78
2023/10/01 06:59:14;;;;;;;3.85;2.10;;;;;;;17.38;100.00;101230.28;5078502;28;20035;-79
2023/10/01 07:01:50;;;;;;;12.45;2.10;;;;;;;17.40;100.00;101233.41;5077541;28;20051;-79
2023/10/01 07:04:23;;;;;;;7.10;2.45;;;;;;;17.46;100.00;101237.16;5095697;28;20036;-79
2023/10/01 07:06:53;;;;;;;7.53;2.30;;;;;;;17.53;100.00;101238.78;5077518;28;20032;-79
2023/10/01 07:09:34;;;;;;;7.32;1.98;;;;;;;17.64;100.00;101242.47;5077872;28;20043;-79
2023/10/01 07:12:17;;;;;;;7.88;2.10;;;;;;;17.76;100.00;101232.56;5095702;28;20059;-78
2023/10/01 07:14:45;;;;;;;11.00;2.55;;;;;;;18.02;100.00;101243.16;5095710;28;20028;-80
2023/10/01 07:17:15;;;;;;;9.40;2.40;;;;;;;18.29;100.00;101242.38;5096085;28;20056;-79
2023/10/01 07:20:00;;;;;;;8.70;2.53;;;;;;;18.55;100.00;101242.97;5096920;28;20078;-79
2023/10/01 07:22:34;;;;;;;5.45;1.63;;;;;;;18.73;100.00;101243.72;5117844;28;20048;-78
2023/10/01 07:25:00;;;;;;;8.68;1.95;;;;;;;18.95;100.00;101244.53;5120438;28;20083;-78
2023/10/01 07:27:42;;;;;;;6.95;1.92;;;;;;;19.20;100.00;101248.44;5120364;28;20051;-78
2023/10/01 07:30:09;;;;;;;6.03;2.20;;;;;;;19.52;100.00;101243.06;5101843;28;20053;-81
2023/10/01 07:32:41;;;;;;;7.97;2.50;;;;;;;19.99;100.00;101246.81;5102586;28;20216;-79
2023/10/01 07:35:09;;;;;;;7.30;1.83;;;;;;;20.29;100.00;101238.97;5119896;28;20040;-79
2023/10/01 07:37:37;;;;;;;8.02;2.30;;;;;;;20.45;100.00;101248.09;5107846;28;20054;-79
2023/10/01 07:40:13;;;;;;;8.77;1.95;;;;;;;20.50;100.00;101242.22;5098348;28;20104;-78
2023/10/01 07:42:47;;;;;;;5.43;2.08;;;;;;;20.60;100.00;101228.16;5095867;28;20024;-78
2023/10/01 07:45:16;;;;;;;5.85;2.00;;;;;;;20.96;100.00;101246.34;5077752;28;20427;-78
2023/10/01 07:47:42;;;;;;;6.47;2.30;;;;;;;21.17;100.00;101238.72;5078861;28;20036;-78
2023/10/01 07:50:12;;;;;;;5.53;1.95;;;;;;;21.42;100.00;101240.28;5060009;28;20477;-78
2023/10/01 07:52:41;;;;;;;6.45;1.73;;;;;;;21.42;100.00;101245.31;5095720;28;20028;-79
2023/10/01 07:57:52;;;;;;;7.90;2.03;;;;;;;21.05;100.00;101240.97;5073916;28;20489;-76
2023/10/01 08:00:29;;;;;;;7.43;2.50;;;;;;;20.95;100.00;101242.66;5074537;28;20036;-77
2023/10/01 08:03:32;;;;;;;13.32;2.88;;;;;;;20.92;100.00;101251.66;5074917;28;20051;-78
2023/10/01 08:05:48;;;;;;;8.75;2.00;;;;;;;20.86;100.00;101240.09;5070104;28;20039;-79
2023/10/01 08:08:35;;;;;;;7.82;2.15;;;;;;;20.92;100.00;101232.13;5074694;28;20032;-79
2023/10/01 08:13:57;;;;;;;5.00;1.60;;;;;;;20.97;100.00;101228.38;5073160;28;20040;-78
2023/10/01 08:16:24;;;;;;;6.65;1.70;;;;;;;20.97;100.00;101221.78;5072458;28;20044;-78
2023/10/01 08:18:57;;;;;;;6.95;1.70;;;;;;;21.01;100.00;101222.25;5072740;28;20370;-78
2023/10/01 08:21:36;;;;;;;6.97;1.98;;;;;;;20.99;100.00;101219.88;5056805;28;20120;-79
2023/10/01 08:24:18;;;;;;;6.63;1.92;;;;;;;20.99;100.00;101201.69;5058858;28;20044;-78
2023/10/01 08:27:01;;;;;;;8.07;2.20;;;;;;;21.14;100.00;101219.44;5074068;28;20020;-77
2023/10/01 08:29:28;;;;;;;3.30;1.52;;;;;;;21.17;100.00;101213.34;5073788;28;20082;-79
2023/10/01 08:34:29;;;;;;;6.18;2.20;;;;;;;21.37;100.00;101220.78;5072669;28;20032;-79
2023/10/01 08:36:57;;;;;;;7.57;1.92;;;;;;;21.47;100.00;101235.78;5073563;28;20150;-80
2023/10/01 08:42:19;;;;;;;9.95;2.33;;;;;;;21.94;100.00;101216.63;5064955;28;20557;-80
2023/10/01 08:44:54;;;;;;;7.25;2.15;;;;;;;22.24;100.00;101219.38;5072435;28;20032;-79
2023/10/01 08:47:34;;;;;;;5.75;1.73;;;;;;;22.50;100.00;101219.47;5055613;28;20071;-80
2023/10/01 08:53:16;;;;;;;10.48;2.15;;;;;;;23.04;100.00;101224.09;5031553;28;20386;-77
2023/10/01 09:00:48;;;;;;;5.97;2.10;;;;;;;23.17;100.00;101214.56;5028951;28;20036;-80
2023/10/01 09:03:28;;;;;;;3.90;1.73;;;;;;;23.14;100.00;101219.41;5072273;28;20032;-78
2023/10/01 09:06:02;;;;;;;5.15;1.75;;;;;;;23.08;100.00;101221.66;5072258;28;20016;-80
2023/10/01 09:08:54;;;;;;;11.02;2.08;;;;;;;23.05;100.00;101221.97;5056678;28;20481;-78
2023/10/01 09:11:14;;;;;;;9.55;2.33;;;;;;;22.94;100.00;101220.84;5071963;28;20052;-77
2023/10/01 09:13:58;;;;;;;7.93;1.95;;;;;;;22.88;100.00;101204.78;5072280;28;20465;-78
2023/10/01 09:16:31;;;;;;;5.25;1.60;;;;;;;23.05;100.00;101211.09;5073043;28;20021;-77
2023/10/01 09:22:04;;;;;;;7.45;1.92;;;;;;;23.15;100.00;101212.25;5036648;28;20039;-78
2023/10/01 09:24:34;;;;;;;7.97;2.10;;;;;;;23.24;100.00;101222.66;5072183;28;20350;-78
2023/10/01 09:27:27;;;;;;;6.78;2.00;;;;;;;23.27;100.00;101207.75;5073062;28;20051;-79
2023/10/01 09:32:56;;;;;;;7.95;1.67;;;;;;;23.15;100.00;101209.31;5073216;28;20166;-80
2023/10/01 09:35:30;;;;;;;6.07;2.17;;;;;;;23.17;99.27;101220.41;5073385;28;20031;-78
2023/10/01 09:38:27;;;;;;;8.55;2.47;;;;;;;23.15;98.92;101218.06;5056455;28;20465;-79
2023/10/01 09:40:54;;;;;;;8.63;2.25;;;;;;;23.17;100.00;101214.56;5070921;28;20062;-79
2023/10/01 09:43:30;;;;;;;5.05;1.58;;;;;;;23.27;100.00;101212.78;5038498;28;20055;-78
2023/10/01 09:46:00;;;;;;;4.18;1.63;;;;;;;23.32;100.00;101209.75;5056747;28;20025;-78
2023/10/01 09:48:48;;;;;;;6.53;2.20;;;;;;;23.42;98.84;101212.22;5071790;28;20087;-79
2023/10/01 09:51:15;;;;;;;9.30;2.33;;;;;;;23.45;99.75;101211.09;5071754;28;20027;-77
2023/10/01 09:53:45;;;;;;;8.93;2.30;;;;;;;23.48;97.13;101207.84;5054936;28;20052;-79
2023/10/01 09:56:14;;;;;;;8.30;2.22;;;;;;;23.47;96.91;101203.34;5090475;28;20113;-77
2023/10/01 09:58:58;;;;;;;4.13;1.98;;;;;;;23.53;98.07;101201.09;5058141;28;20032;-78
2023/10/01 10:01:27;;;;;;;7.90;2.00;;;;;;;23.51;97.88;101185.50;5094793;28;20024;-78
2023/10/01 10:03:57;;;;;;;7.85;1.73;;;;;;;23.65;96.08;101198.78;5062725;28;20040;-80
2023/10/01 10:06:25;;;;;;;4.70;1.52;;;;;;;23.70;97.93;101192.03;5097016;28;20027;-78
2023/10/01 10:09:06;;;;;;;7.18;1.85;;;;;;;23.85;95.85;101206.03;5079403;28;20032;-77
2023/10/01 10:11:45;;;;;;;6.28;1.85;;;;;;;23.83;95.43;101197.81;5080591;28;20035;-78
2023/10/01 10:14:26;;;;;;;9.32;2.70;;;;;;;23.87;96.82;101194.56;5079306;28;20469;-78
2023/10/01 10:17:00;;;;;;;5.57;1.67;;;;;;;23.97;94.88;101192.72;5096559;28;20020;-77
2023/10/01 10:19:31;;;;;;;6.25;1.85;;;;;;;23.89;89.83;101180.19;5096793;28;20358;-77
2023/10/01 10:24:33;;;;;;;5.95;1.73;;;;;;;24.02;91.18;101203.50;5096853;28;20469;-79
2023/10/01 10:27:09;;;;;;;6.15;1.52;;;;;;;23.96;89.91;101173.63;5096789;28;20020;-78
2023/10/01 10:30:14;;;;;;;6.80;1.58;;;;;;;23.88;83.69;101170.63;5080849;28;20031;-79
2023/10/01 10:32:44;;;;;;;6.80;1.70;;;;;;;23.75;85.18;101177.28;5096575;28;20095;-79
2023/10/01 10:35:17;;;;;;;7.22;2.92;;;;;;;23.66;87.79;101165.28;5078918;28;20028;-79
2023/10/01 10:37:57;;;;;;;6.45;1.85;;;;;;;23.57;86.08;101175.31;5096310;28;20032;-77
2023/10/01 10:40:29;;;;;;;8.73;1.73;;;;;;;23.41;86.61;101175.66;5080336;28;20498;-78
2023/10/01 10:43:16;;;;;;;14.35;2.85;;;;;;;23.21;88.10;101177.13;5096474;28;20024;-81
2023/10/01 10:45:57;;;;;;;6.35;1.73;;;;;;;23.07;89.13;101172.63;5079128;28;20074;-78
2023/10/01 10:48:59;;;;;;;7.25;1.98;;;;;;;23.09;91.79;101175.78;5096111;28;20027;-78
2023/10/01 10:51:46;;;;;;;4.35;1.73;;;;;;;23.24;91.41;101176.00;5079277;28;20426;-78
2023/10/01 10:54:27;;;;;;;7.13;1.77;;;;;;;23.41;91.24;101179.34;5077994;28;20436;-78
2023/10/01 10:56:53;;;;;;;4.55;2.03;;;;;;;23.55;89.96;101175.09;5078447;28;20477;-80
2023/10/01 10:59:19;;;;;;;10.30;1.98;;;;;;;23.55;88.93;101157.59;5095973;28;20030;-79
2023/10/01 11:01:46;;;;;;;4.40;1.65;;;;;;;23.45;84.54;101152.75;5095909;28;20016;-78
2023/10/01 11:04:16;;;;;;;9.55;1.38;;;;;;;23.25;83.15;101155.03;5095934;28;20028;-78
2023/10/01 11:07:05;;;;;;;3.33;1.52;;;;;;;22.98;86.17;101165.09;5044960;28;20031;-79
2023/10/01 11:09:32;;;;;;;5.35;1.35;;;;;;;22.93;89.63;101160.97;5066314;28;20027;-78
2023/10/01 11:12:32;;;;;;;10.00;1.65;;;;;;;23.07;90.77;101163.88;5095463;28;20028;-80
2023/10/01 11:17:47;;;;;;;6.05;2.50;;;;;;;23.19;87.94;101166.00;5095518;28;20097;-78
2023/10/01 11:20:23;;;;;;;7.72;1.63;;;;;;;23.13;87.44;101144.91;5077715;28;20106;-80
2023/10/01 11:22:54;;;;;;;7.80;1.60;;;;;;;23.23;86.65;101154.78;5061885;28;20032;-78
2023/10/01 11:25:47;;;;;;;4.43;1.38;;;;;;;23.30;89.82;101151.22;5077772;28;20384;-80
2023/10/01 11:28:13;;;;;;;7.47;1.83;;;;;;;23.38;89.83;101160.06;5095383;28;20464;-78
2023/10/01 11:30:42;;;;;;;3.58;1.58;;;;;;;23.48;90.13;101151.63;5095575;28;20032;-79
2023/10/01 11:33:29;;;;;;;6.32;1.88;;;;;;;23.46;84.92;101136.81;5077883;28;20522;-79
2023/10/01 11:36:14;;;;;;;4.60;1.70;;;;;;;23.40;85.80;101139.84;5094573;28;20032;-78
2023/10/01 11:38:45;;;;;;;6.45;2.30;;;;;;;23.35;87.43;101126.19;5078158;28;20042;-80
2023/10/01 11:41:18;;;;;;;5.80;1.75;;;;;;;23.42;89.15;101137.16;5062218;28;20542;-79
2023/10/01 11:44:02;;;;;;;4.38;1.50;;;;;;;23.52;88.48;101135.34;5117183;28;20031;-78
2023/10/01 11:46:39;;;;;;;6.90;1.65;;;;;;;23.60;86.97;101120.88;5113814;28;20024;-80
2023/10/01 11:49:15;;;;;;;4.35;1.90;;;;;;;23.57;87.15;101122.78;5112839;28;20024;-80
2023/10/01 11:51:48;;;;;;;6.25;1.70;;;;;;;23.33;86.81;101120.09;5112938;28;20076;-79
2023/10/01 11:54:16;;;;;;;8.25;1.52;;;;;;;23.35;88.50;101123.25;5118345;28;20019;-79
2023/10/01 11:57:04;;;;;;;9.20;1.48;;;;;;;23.27;88.81;101128.97;5101200;28;20106;-80
2023/10/01 11:59:42;;;;;;;8.30;1.65;;;;;;;23.27;89.26;101122.34;5080908;28;20135;-78
2023/10/01 12:02:33;;;;;;;7.07;1.58;;;;;;;23.37;88.94;101117.63;5094303;28;20449;-79
2023/10/01 12:05:03;;;;;;;3.55;1.38;;;;;;;23.51;89.71;101124.22;5076926;28;20032;-78
2023/10/01 12:07:40;;;;;;;6.28;1.58;;;;;;;23.62;88.86;101126.91;5076948;28;20397;-78
2023/10/01 12:10:36;;;;;;;7.18;1.92;;;;;;;23.58;85.88;101120.66;5079948;28;20028;-78
2023/10/01 12:13:10;;;;;;;6.78;1.35;;;;;;;23.54;85.58;101118.06;5076969;28;20101;-79
2023/10/01 12:15:40;;;;;;;11.00;1.98;;;;;;;23.46;84.23;101113.47;5094305;28;20024;-78
2023/10/01 12:18:36;;;;;;;8.07;1.90;;;;;;;23.07;85.56;101088.84;5093876;28;20035;-78
2023/10/01 12:21:24;;;;;;;12.55;2.20;;;;;;;23.04;86.49;101112.53;5094925;28;20020;-79
2023/10/01 12:24:13;;;;;;;4.45;1.35;;;;;;;22.83;86.70;101121.13;5092136;28;20032;-78
2023/10/01 12:26:43;;;;;;;6.90;1.85;;;;;;;22.53;88.03;101101.81;5076288;28;20107;-77
2023/10/01 12:29:13;;;;;;;5.53;1.77;;;;;;;22.42;89.47;101121.66;5076251;28;20024;-80
2023/10/01 12:31:59;;;;;;;8.98;1.60;;;;;;;22.24;91.72;101123.25;5094388;28;20035;-79
2023/10/01 12:34:25;;;;;;;3.63;1.50;;;;;;;22.07;92.51;101117.72;5094411;28;20098;-76
2023/10/01 12:36:51;;;;;;;5.50;1.67;;;;;;;21.92;92.78;101123.25;5094515;28;20095;-78
2023/10/01 12:39:17;;;;;;;8.80;2.00;;;;;;;21.74;94.33;101106.59;5058908;28;20497;-79
2023/10/01 12:41:56;;;;;;;9.43;2.28;;;;;;;21.77;96.37;101119.25;5094255;28;20204;-79
2023/10/01 12:44:25;;;;;;;6.20;1.40;;;;;;;21.79;96.81;101116.56;5094063;28;20024;-79
2023/10/01 12:47:02;;;;;;;11.10;1.95;;;;;;;21.87;96.78;101118.31;5076148;28;20106;-78
2023/10/01 12:49:32;;;;;;;4.40;1.40;;;;;;;21.88;94.24;101116.19;5095233;28;20032;-81
2023/10/01 12:51:59;;;;;;;8.25;1.50;;;;;;;21.83;95.30;101105.41;5094228;28;20059;-78